Terminal Aerodrome Forecast
Issued by NWS

Home | Current Version | Previous Version | Text Only | Print | Product List | Glossary Off
Versions: 1 2 3 4 5 6 7 8 9 10 11 12 13 14 15 16 17 18

028
FTUS43 KBIS 221832 AAA
TAFDIK
TAF AMD
KDIK 221832Z 2219/2318 28012G20KT P6SM BKN080
     FM230200 09008KT P6SM SCT050 BKN080
     FM231200 07011KT P6SM BKN008
     FM231600 08013KT P6SM BKN010=

USA.gov is the U.S. government's official web portal to all federal, state and local government web resources and services.